createdAt,value
2022-11-03T00:02:08.741Z,2.40
2022-11-03T00:04:37.071Z,3.03
2022-11-03T00:07:05.299Z,2.40
2022-11-03T00:09:33.603Z,2.60
2022-11-03T00:12:02.037Z,2.30
2022-11-03T00:14:30.328Z,2.27
2022-11-03T00:16:59.913Z,2.80
2022-11-03T00:19:28.157Z,2.70
2022-11-03T00:21:58.351Z,2.53
2022-11-03T00:24:26.697Z,3.10
2022-11-03T00:26:54.864Z,2.50
2022-11-03T00:29:27.307Z,2.57
2022-11-03T00:31:55.563Z,2.47
2022-11-03T00:34:25.111Z,2.90
2022-11-03T00:36:55.698Z,2.80
2022-11-03T00:39:23.858Z,2.10
2022-11-03T00:41:53.511Z,2.40
2022-11-03T00:44:21.728Z,3.03
2022-11-03T00:46:49.894Z,2.93
2022-11-03T00:49:18.086Z,2.60
2022-11-03T00:51:48.080Z,2.80
2022-11-03T00:54:16.295Z,2.63
2022-11-03T00:56:45.439Z,2.20
2022-11-03T00:59:13.885Z,2.80
2022-11-03T01:01:47.569Z,3.10
2022-11-03T01:04:34.877Z,2.60
2022-11-03T01:07:06.677Z,2.53
2022-11-03T01:09:38.353Z,2.70
2022-11-03T01:12:09.708Z,2.10
2022-11-03T01:14:41.390Z,2.57
2022-11-03T01:17:11.907Z,2.70
2022-11-03T01:19:40.129Z,2.57
2022-11-03T01:22:11.044Z,2.57
2022-11-03T01:24:43.690Z,2.90
2022-11-03T01:27:14.297Z,3.13
2022-11-03T01:29:43.252Z,2.60
2022-11-03T01:32:11.682Z,2.60
2022-11-03T01:34:40.369Z,2.63
2022-11-03T01:37:09.960Z,3.20
2022-11-03T01:39:38.175Z,2.80
2022-11-03T01:42:06.473Z,3.47
2022-11-03T01:44:38.166Z,2.90
2022-11-03T01:47:19.186Z,2.97
2022-11-03T01:49:51.491Z,2.67
2022-11-03T01:52:25.655Z,2.93
2022-11-03T01:55:01.387Z,2.70
2022-11-03T01:57:39.962Z,2.53
2022-11-03T02:00:10.474Z,2.87
2022-11-03T02:02:38.803Z,2.97
2022-11-03T02:05:09.308Z,3.00
2022-11-03T02:07:45.507Z,2.53
2022-11-03T02:10:13.805Z,2.70
2022-11-03T02:12:42.679Z,2.77
2022-11-03T02:15:13.750Z,3.37
2022-11-03T02:17:43.976Z,3.37
2022-11-03T02:20:17.091Z,3.63
2022-11-03T02:23:09.317Z,3.07
2022-11-03T02:25:46.404Z,3.60
2022-11-03T02:28:17.721Z,2.63
2022-11-03T02:31:05.274Z,3.47
2022-11-03T02:33:46.986Z,3.37
2022-11-03T02:36:23.198Z,2.90
2022-11-03T02:38:59.347Z,3.27
2022-11-03T02:41:30.970Z,2.77
2022-11-03T02:43:59.791Z,3.70
2022-11-03T02:46:29.801Z,2.60
2022-11-03T02:48:58.239Z,2.90
2022-11-03T02:51:29.008Z,2.80
2022-11-03T02:54:07.426Z,2.33
2022-11-03T02:56:43.759Z,3.03
2022-11-03T02:59:15.840Z,2.90
2022-11-03T03:01:52.686Z,2.60
2022-11-03T03:04:31.820Z,2.33
2022-11-03T03:07:04.397Z,2.77
2022-11-03T03:09:38.331Z,2.90
2022-11-03T03:12:09.864Z,3.10
2022-11-03T03:14:41.303Z,2.67
2022-11-03T03:17:15.883Z,2.73
2022-11-03T03:19:52.304Z,2.90
2022-11-03T03:22:26.503Z,2.97
2022-11-03T03:25:01.065Z,2.67
2022-11-03T03:27:34.390Z,3.03
2022-11-03T03:30:08.068Z,3.20
2022-11-03T03:32:39.896Z,3.40
2022-11-03T03:35:11.379Z,3.33
2022-11-03T03:37:42.348Z,2.57
2022-11-03T03:40:15.159Z,3.00
2022-11-03T03:42:46.876Z,2.93
2022-11-03T03:45:15.969Z,3.20
2022-11-03T03:47:45.572Z,2.90
2022-11-03T03:50:14.003Z,3.07
2022-11-03T03:52:42.230Z,3.33
2022-11-03T03:55:19.413Z,3.13
2022-11-03T03:57:49.487Z,3.53
2022-11-03T04:00:19.371Z,2.73
2022-11-03T04:02:47.712Z,2.90
2022-11-03T04:05:16.187Z,3.10
2022-11-03T04:07:50.356Z,3.57
2022-11-03T04:10:23.024Z,3.20
2022-11-03T04:13:10.716Z,2.90
2022-11-03T04:15:57.953Z,3.70
2022-11-03T04:18:43.787Z,3.70
2022-11-03T04:21:40.560Z,2.70
2022-11-03T04:24:08.989Z,3.10
2022-11-03T04:26:37.163Z,3.50
2022-11-03T04:29:11.198Z,3.00
2022-11-03T04:31:39.750Z,3.10
2022-11-03T04:34:13.526Z,3.40
2022-11-03T04:36:41.735Z,3.60
2022-11-03T04:39:20.355Z,3.73
2022-11-03T04:41:48.787Z,3.70
2022-11-03T04:44:19.655Z,3.70
2022-11-03T04:46:48.234Z,4.07
2022-11-03T04:49:23.581Z,3.17
2022-11-03T04:51:51.822Z,3.20
2022-11-03T04:54:23.431Z,3.23
2022-11-03T04:56:51.816Z,3.50
2022-11-03T04:59:21.346Z,3.27
2022-11-03T05:01:50.111Z,3.40
2022-11-03T05:04:19.525Z,3.40
2022-11-03T05:06:52.536Z,3.33
2022-11-03T05:09:26.163Z,3.20
2022-11-03T05:11:54.553Z,3.53
2022-11-03T05:14:27.813Z,3.60
2022-11-03T05:16:57.327Z,3.40
2022-11-03T05:19:31.151Z,3.50
2022-11-03T05:22:02.111Z,3.73
2022-11-03T05:24:32.502Z,3.20
2022-11-03T05:27:01.535Z,3.23
2022-11-03T05:29:37.523Z,3.60
2022-11-03T05:32:15.183Z,3.20
2022-11-03T05:34:45.066Z,3.10
2022-11-03T05:37:27.924Z,3.70
2022-11-03T05:39:59.763Z,3.60
2022-11-03T05:42:35.383Z,3.53
2022-11-03T05:45:19.919Z,3.07
2022-11-03T05:47:50.180Z,3.90
2022-11-03T05:50:25.034Z,3.27
2022-11-03T05:52:56.732Z,3.90
2022-11-03T05:55:29.061Z,3.20
2022-11-03T05:58:00.266Z,3.73
2022-11-03T06:00:35.619Z,4.53
2022-11-03T06:03:04.284Z,3.83
2022-11-03T06:05:34.773Z,4.10
2022-11-03T06:08:14.319Z,3.90
2022-11-03T06:10:47.816Z,4.13
2022-11-03T06:13:20.668Z,4.07
2022-11-03T06:15:58.277Z,3.90
2022-11-03T06:18:32.935Z,3.97
2022-11-03T06:21:08.382Z,4.00
2022-11-03T06:23:38.640Z,3.50
2022-11-03T06:26:14.730Z,3.67
2022-11-03T06:28:43.243Z,3.43
2022-11-03T06:31:22.913Z,3.47
2022-11-03T06:33:52.989Z,3.40
2022-11-03T06:36:24.379Z,3.20
2022-11-03T06:38:56.829Z,3.47
2022-11-03T06:41:28.484Z,3.37
2022-11-03T06:43:59.032Z,3.73
2022-11-03T06:46:29.259Z,3.47
2022-11-03T06:49:00.679Z,3.77
2022-11-03T06:51:30.839Z,3.83
2022-11-03T06:54:01.521Z,3.20
2022-11-03T06:56:32.984Z,3.43
2022-11-03T06:59:02.331Z,3.67
2022-11-03T07:01:35.273Z,3.77
2022-11-03T07:04:10.205Z,4.77
2022-11-03T07:06:38.812Z,3.57
2022-11-03T07:09:15.407Z,3.53
2022-11-03T07:11:47.902Z,4.00
2022-11-03T07:14:18.533Z,4.27
2022-11-03T07:16:50.964Z,3.17
2022-11-03T07:19:23.447Z,3.30
2022-11-03T07:21:54.443Z,4.23
2022-11-03T07:24:25.945Z,4.03
2022-11-03T07:27:01.308Z,3.87
2022-11-03T07:29:32.259Z,3.40
2022-11-03T07:32:01.975Z,3.60
2022-11-03T07:34:34.657Z,3.30
2022-11-03T07:37:03.054Z,3.83
2022-11-03T07:39:36.467Z,3.57
2022-11-03T07:42:14.306Z,4.57
2022-11-03T07:44:42.663Z,3.53
2022-11-03T07:47:19.722Z,3.00
2022-11-03T07:49:48.905Z,3.30
2022-11-03T07:52:21.697Z,3.30
2022-11-03T07:54:52.203Z,4.30
2022-11-03T07:57:24.765Z,3.23
2022-11-03T07:59:57.517Z,3.70
2022-11-03T08:02:34.578Z,4.10
2022-11-03T08:05:03.072Z,3.13
2022-11-03T08:07:32.660Z,3.53
2022-11-03T08:10:00.883Z,3.47
2022-11-03T08:12:29.117Z,4.13
2022-11-03T08:14:57.408Z,3.30
2022-11-03T08:17:27.057Z,3.97
2022-11-03T08:19:55.373Z,3.53
2022-11-03T08:22:25.979Z,3.60
2022-11-03T08:24:54.182Z,3.27
2022-11-03T08:27:22.368Z,4.33
2022-11-03T08:29:50.567Z,3.50
2022-11-03T08:32:18.829Z,3.67
2022-11-03T08:34:48.570Z,3.70
2022-11-03T08:37:16.680Z,3.73
2022-11-03T08:39:45.023Z,4.47
2022-11-03T08:42:15.715Z,4.07
2022-11-03T08:44:43.848Z,3.73
2022-11-03T08:47:12.089Z,4.00
2022-11-03T08:49:40.325Z,3.77
2022-11-03T08:52:09.895Z,4.17
2022-11-03T08:54:38.158Z,4.20
2022-11-03T08:57:06.364Z,5.47
2022-11-03T08:59:34.508Z,4.13
2022-11-03T09:02:02.767Z,4.20
2022-11-03T09:04:30.940Z,4.67
2022-11-03T09:06:59.163Z,3.90
2022-11-03T09:12:16.951Z,3.87
2022-11-03T09:14:45.173Z,4.10
2022-11-03T09:17:13.360Z,3.67
2022-11-03T09:19:41.625Z,4.13
2022-11-03T09:22:09.854Z,3.53
2022-11-03T09:24:39.431Z,3.63
2022-11-03T09:27:07.595Z,3.87
2022-11-03T09:29:58.452Z,4.23
2022-11-03T09:32:24.445Z,3.93
2022-11-03T09:34:52.555Z,4.67
2022-11-03T09:37:22.015Z,3.53
2022-11-03T09:39:51.594Z,3.37
2022-11-03T09:42:20.565Z,3.90
2022-11-03T09:44:51.634Z,3.50
2022-11-03T09:47:25.013Z,3.50
2022-11-03T09:49:53.446Z,3.30
2022-11-03T09:52:24.437Z,3.53
2022-11-03T09:54:56.459Z,3.60
2022-11-03T09:57:28.380Z,3.90
2022-11-03T09:59:57.198Z,3.47
2022-11-03T10:02:30.159Z,3.57
2022-11-03T10:05:01.837Z,3.30
2022-11-03T10:07:33.177Z,3.63
2022-11-03T10:10:02.820Z,3.50
2022-11-03T10:12:33.936Z,3.50
2022-11-03T10:15:02.196Z,3.67
2022-11-03T10:17:32.056Z,3.70
2022-11-03T10:20:00.592Z,3.50
2022-11-03T10:22:28.732Z,3.50
2022-11-03T10:25:35.924Z,3.37
2022-11-03T10:28:20.158Z,3.47
2022-11-03T10:33:52.813Z,3.37
2022-11-03T10:36:26.971Z,3.17
2022-11-03T10:38:55.773Z,3.33
2022-11-03T10:41:27.247Z,3.30
2022-11-03T10:44:05.677Z,3.17
2022-11-03T10:46:51.580Z,3.40
2022-11-03T10:49:21.541Z,3.47
2022-11-03T10:51:53.246Z,3.23
2022-11-03T10:54:24.655Z,3.43
2022-11-03T10:56:54.415Z,3.73
2022-11-03T10:59:31.407Z,3.37
2022-11-03T11:02:00.306Z,3.27
2022-11-03T11:04:29.164Z,3.20
2022-11-03T11:06:57.558Z,3.73
2022-11-03T11:09:29.216Z,3.33
2022-11-03T11:12:05.195Z,3.23
2022-11-03T11:14:39.785Z,3.20
2022-11-03T11:17:42.880Z,3.50
2022-11-03T11:20:37.720Z,3.00
2022-11-03T11:23:53.055Z,3.17
2022-11-03T11:26:42.214Z,3.70
2022-11-03T11:29:45.019Z,3.07
2022-11-03T11:32:58.030Z,3.63
2022-11-03T11:36:06.674Z,2.83
2022-11-03T11:39:03.670Z,3.00
2022-11-03T11:42:10.890Z,2.73
2022-11-03T11:45:06.675Z,3.03
2022-11-03T11:47:45.781Z,2.80
2022-11-03T11:50:32.381Z,2.83
2022-11-03T11:53:20.778Z,2.63
2022-11-03T11:55:52.970Z,2.80
2022-11-03T11:58:41.775Z,2.77
2022-11-03T12:01:26.870Z,2.87
2022-11-03T12:03:57.956Z,2.87
2022-11-03T12:06:36.871Z,2.70
2022-11-03T12:09:15.774Z,2.63
2022-11-03T12:11:47.649Z,2.43
2022-11-03T12:14:26.052Z,2.30
2022-11-03T12:16:56.340Z,2.77
2022-11-03T12:19:40.061Z,2.37
2022-11-03T12:22:10.781Z,2.77
2022-11-03T12:24:51.929Z,2.70
2022-11-03T12:27:41.875Z,2.60
2022-11-03T12:30:19.806Z,2.27
2022-11-03T12:32:49.507Z,2.30
2022-11-03T12:35:18.097Z,2.50
2022-11-03T12:37:46.828Z,2.80
2022-11-03T12:40:15.492Z,2.00
2022-11-03T12:42:43.738Z,2.33
2022-11-03T12:45:13.604Z,2.13
2022-11-03T12:47:43.192Z,2.43
2022-11-03T12:50:13.130Z,2.50
2022-11-03T12:52:41.264Z,2.40
2022-11-03T12:55:10.494Z,2.50
2022-11-03T12:57:38.790Z,2.17
2022-11-03T13:00:09.425Z,2.40
2022-11-03T13:02:39.609Z,2.60
2022-11-03T13:05:09.616Z,2.20
2022-11-03T13:07:40.042Z,2.67
2022-11-03T13:10:10.230Z,2.30
2022-11-03T13:12:43.395Z,2.50
2022-11-03T13:15:13.533Z,2.40
2022-11-03T13:20:30.173Z,2.77
2022-11-03T13:22:59.745Z,2.67
2022-11-03T13:25:28.882Z,2.30
2022-11-03T13:27:57.714Z,2.60
2022-11-03T13:30:28.494Z,2.53
2022-11-03T13:32:57.128Z,2.03
2022-11-03T13:35:25.283Z,2.43
2022-11-03T13:37:53.514Z,2.30
2022-11-03T13:43:11.687Z,2.40
2022-11-03T13:45:40.227Z,2.33
2022-11-03T13:50:56.922Z,2.50
2022-11-03T13:56:21.419Z,2.20
2022-11-03T14:01:40.897Z,2.53
2022-11-03T14:06:58.378Z,2.63
2022-11-03T14:09:26.716Z,2.13
2022-11-03T14:12:13.960Z,2.40
2022-11-03T14:14:42.235Z,2.43
2022-11-03T14:17:10.740Z,2.30
2022-11-03T14:19:44.736Z,2.17
2022-11-03T14:22:14.350Z,1.93
2022-11-03T14:24:42.656Z,2.37
2022-11-03T14:27:12.816Z,1.90
2022-11-03T14:29:41.031Z,2.33
2022-11-03T14:32:09.227Z,2.30
2022-11-03T14:34:38.368Z,2.43
2022-11-03T14:37:08.836Z,2.37
2022-11-03T14:39:37.600Z,2.10
2022-11-03T14:42:05.460Z,2.37
2022-11-03T14:44:36.631Z,1.90
2022-11-03T14:47:06.951Z,2.13
2022-11-03T14:49:36.516Z,2.10
2022-11-03T14:52:07.261Z,2.23
2022-11-03T14:54:36.607Z,1.90
2022-11-03T14:57:05.206Z,2.20
2022-11-03T14:59:35.419Z,2.13
2022-11-03T15:02:06.027Z,2.57
2022-11-03T15:04:34.554Z,2.50
2022-11-03T15:07:02.807Z,2.20
2022-11-03T15:09:31.037Z,2.60
2022-11-03T15:11:59.219Z,2.60
2022-11-03T15:14:27.536Z,3.10
2022-11-03T15:16:57.734Z,2.73
2022-11-03T15:19:26.180Z,2.47
2022-11-03T15:21:54.349Z,2.90
2022-11-03T15:27:13.772Z,2.77
2022-11-03T15:29:41.982Z,2.37
2022-11-03T15:32:11.725Z,2.50
2022-11-03T15:34:39.953Z,2.40
2022-11-03T15:37:08.487Z,2.30
2022-11-03T15:39:36.708Z,2.17
2022-11-03T15:42:05.501Z,2.40
2022-11-03T15:44:33.674Z,2.40
2022-11-03T15:47:01.845Z,2.43
2022-11-03T15:49:31.892Z,2.57
2022-11-03T15:52:00.053Z,2.90
2022-11-03T15:54:28.434Z,2.40
2022-11-03T15:56:56.649Z,2.67
2022-11-03T15:59:24.827Z,2.33
2022-11-03T16:01:59.744Z,3.00
2022-11-03T16:04:42.563Z,2.40
2022-11-03T16:07:10.790Z,3.03
2022-11-03T16:09:39.035Z,2.97
2022-11-03T16:12:08.114Z,3.33
2022-11-03T16:14:36.343Z,2.73
2022-11-03T16:17:07.373Z,2.60
2022-11-03T16:19:35.643Z,2.73
2022-11-03T16:22:05.166Z,3.00
2022-11-03T16:24:35.311Z,2.93
2022-11-03T16:27:04.001Z,2.43
2022-11-03T16:29:32.164Z,2.70
2022-11-03T16:32:00.388Z,2.77
2022-11-03T16:34:28.565Z,2.63
2022-11-03T16:36:57.354Z,2.70
2022-11-03T16:39:26.941Z,2.53
2022-11-03T16:41:55.232Z,3.10
2022-11-03T16:44:23.784Z,2.30
2022-11-03T16:46:51.990Z,3.20
2022-11-03T16:49:20.172Z,2.90
2022-11-03T16:51:48.319Z,3.23
2022-11-03T16:54:16.499Z,2.97
2022-11-03T16:56:50.599Z,2.63
2022-11-03T16:59:24.248Z,2.60
2022-11-03T17:01:52.687Z,2.83
2022-11-03T17:04:21.013Z,3.13
2022-11-03T17:06:49.216Z,2.70
2022-11-03T17:09:17.413Z,2.93
2022-11-03T17:11:46.933Z,3.10
2022-11-03T17:14:15.254Z,3.00
2022-11-03T17:16:45.586Z,2.70
2022-11-03T17:19:14.127Z,2.70
2022-11-03T17:21:42.422Z,2.93
2022-11-03T17:24:11.333Z,2.83
2022-11-03T17:26:52.236Z,2.80
2022-11-03T17:29:23.100Z,2.50
2022-11-03T17:31:52.146Z,2.30
2022-11-03T17:34:25.187Z,3.00
2022-11-03T17:36:54.546Z,2.80
2022-11-03T17:39:30.280Z,3.13
2022-11-03T17:42:17.321Z,2.53
2022-11-03T17:44:47.318Z,2.83
2022-11-03T17:47:15.997Z,2.60
2022-11-03T17:49:44.504Z,2.70
2022-11-03T17:52:16.263Z,3.83
2022-11-03T17:54:44.520Z,3.60
2022-11-03T17:57:18.719Z,3.07
2022-11-03T17:59:50.827Z,3.70
2022-11-03T18:02:22.287Z,4.20
2022-11-03T18:05:01.048Z,3.73
2022-11-03T18:07:30.686Z,3.60
2022-11-03T18:09:58.860Z,4.03
2022-11-03T18:13:03.307Z,4.30
2022-11-03T18:15:34.189Z,3.97
2022-11-03T18:18:03.886Z,4.70
2022-11-03T18:20:32.385Z,5.10
2022-11-03T18:23:15.637Z,4.63
2022-11-03T18:25:44.600Z,4.93
2022-11-03T18:28:14.473Z,4.93
2022-11-03T18:30:45.521Z,4.70
2022-11-03T18:33:29.099Z,4.20
2022-11-03T18:35:57.556Z,5.20
2022-11-03T18:38:27.220Z,4.93
2022-11-03T18:40:55.952Z,5.50
2022-11-03T18:43:27.051Z,5.00
2022-11-03T18:45:55.280Z,5.03
2022-11-03T18:48:24.042Z,5.60
2022-11-03T18:50:55.155Z,5.27
2022-11-03T18:53:25.650Z,5.20
2022-11-03T18:55:54.790Z,5.10
2022-11-03T18:58:26.616Z,5.40
2022-11-03T19:00:55.197Z,5.03
2022-11-03T19:03:24.823Z,5.37
2022-11-03T19:05:55.825Z,6.07
2022-11-03T19:08:26.735Z,5.70
2022-11-03T19:10:56.933Z,5.73
2022-11-03T19:13:30.548Z,6.43
2022-11-03T19:16:01.031Z,6.30
2022-11-03T19:18:31.811Z,6.83
2022-11-03T19:21:00.007Z,5.47
2022-11-03T19:23:28.295Z,6.93
2022-11-03T19:26:00.977Z,6.53
2022-11-03T19:28:34.272Z,6.50
2022-11-03T19:31:03.085Z,6.47
2022-11-03T19:33:32.019Z,7.27
2022-11-03T19:36:00.330Z,6.80
2022-11-03T19:38:28.663Z,6.90
2022-11-03T19:41:14.351Z,6.97
2022-11-03T19:43:45.522Z,7.53
2022-11-03T19:46:20.716Z,6.83
2022-11-03T19:48:49.334Z,6.87
2022-11-03T19:51:17.594Z,8.57
2022-11-03T19:53:47.366Z,7.60
2022-11-03T19:56:16.882Z,7.93
2022-11-03T19:58:46.533Z,8.27
2022-11-03T20:01:14.951Z,8.33
2022-11-03T20:03:43.235Z,9.03
2022-11-03T20:06:15.394Z,9.07
2022-11-03T20:08:48.026Z,9.37
2022-11-03T20:11:16.346Z,9.27
2022-11-03T20:13:47.347Z,9.97
2022-11-03T20:16:17.252Z,9.93
2022-11-03T20:18:48.889Z,9.17
2022-11-03T20:21:20.006Z,10.20
2022-11-03T20:23:50.391Z,9.93
2022-11-03T20:26:21.933Z,9.93
2022-11-03T20:28:53.049Z,9.87
2022-11-03T20:31:21.516Z,11.07
2022-11-03T20:33:49.807Z,11.07
2022-11-03T20:36:20.933Z,11.97
2022-11-03T20:38:53.257Z,11.63
2022-11-03T20:41:21.524Z,11.20
2022-11-03T20:43:53.032Z,12.10
2022-11-03T20:46:25.181Z,11.67
2022-11-03T20:48:55.314Z,11.43
2022-11-03T20:51:26.623Z,12.33
2022-11-03T20:53:55.990Z,12.10
2022-11-03T20:56:27.014Z,12.27
2022-11-03T20:58:57.333Z,11.23
2022-11-03T21:01:30.692Z,12.33
2022-11-03T21:04:01.156Z,11.93
2022-11-03T21:06:31.410Z,12.10
2022-11-03T21:09:00.353Z,13.40
2022-11-03T21:11:34.240Z,13.90
2022-11-03T21:14:13.755Z,14.20
2022-11-03T21:17:00.366Z,14.20
2022-11-03T21:19:50.343Z,14.87
2022-11-03T21:25:16.083Z,15.10
2022-11-03T21:27:44.711Z,16.63
2022-11-03T21:30:17.172Z,15.37
2022-11-03T21:32:45.487Z,15.30
2022-11-03T21:35:16.904Z,15.60
2022-11-03T21:37:45.073Z,16.83
2022-11-03T21:40:13.528Z,16.17
2022-11-03T21:43:07.623Z,16.93
2022-11-03T21:45:37.548Z,17.00
2022-11-03T21:48:24.112Z,15.73
2022-11-03T21:50:52.305Z,16.23
2022-11-03T21:53:20.633Z,17.37
2022-11-03T21:55:49.616Z,17.37
2022-11-03T21:58:17.854Z,17.57
2022-11-03T22:00:47.935Z,17.97
2022-11-03T22:03:16.362Z,18.37
2022-11-03T22:05:45.096Z,19.50
2022-11-03T22:08:13.246Z,19.73
2022-11-03T22:10:41.720Z,20.03
2022-11-03T22:13:10.515Z,21.70
2022-11-03T22:15:56.674Z,21.03
2022-11-03T22:18:26.951Z,20.53
2022-11-03T22:21:12.468Z,20.20
2022-11-03T22:23:58.085Z,19.70
2022-11-03T22:26:43.969Z,19.60
2022-11-03T22:29:29.779Z,18.10
2022-11-03T22:31:57.954Z,18.70
2022-11-03T22:34:45.352Z,17.87
2022-11-03T22:37:13.567Z,18.03
2022-11-03T22:39:59.189Z,20.20
2022-11-03T22:42:45.080Z,19.50
2022-11-03T22:45:31.017Z,20.07
2022-11-03T22:47:59.256Z,18.73
2022-11-03T22:50:28.960Z,19.53
2022-11-03T22:52:57.230Z,19.37
2022-11-03T22:55:24.466Z,20.30
2022-11-03T22:57:52.912Z,19.53
2022-11-03T23:00:22.583Z,19.13
2022-11-03T23:02:54.642Z,20.33
2022-11-03T23:05:22.818Z,20.50
2022-11-03T23:07:52.617Z,19.43
2022-11-03T23:10:22.957Z,20.17
2022-11-03T23:12:51.156Z,21.20
2022-11-03T23:15:34.272Z,19.73
2022-11-03T23:18:21.998Z,20.77
2022-11-03T23:21:08.957Z,21.57
2022-11-03T23:23:58.321Z,21.83
2022-11-03T23:26:27.920Z,21.93
2022-11-03T23:28:56.212Z,21.60
2022-11-03T23:31:24.371Z,21.73
2022-11-03T23:33:52.661Z,22.00
2022-11-03T23:36:20.927Z,22.67
2022-11-03T23:38:50.487Z,22.07
2022-11-03T23:41:20.259Z,24.07
2022-11-03T23:43:48.675Z,24.17
2022-11-03T23:46:38.273Z,24.43
2022-11-03T23:49:07.278Z,23.47
2022-11-03T23:51:37.359Z,22.97
2022-11-03T23:54:09.498Z,22.17
2022-11-03T23:56:57.875Z,22.20
2022-11-03T23:59:27.322Z,21.83
